Catalina Flyer — WTD8887 — position and weather

sailwx.info

Track history (hours):
 
Tides and Currents Weather Stations Pressure Air Temp Water Temp Dewpoint Dewpoint Depression Visibility Wind Speed Wind Dir Waves Ship Positions

Catalina Flyer

Owner: CATALINA PASSENGER SERVICE INC, BALBOA, CA. More information available from US FCC via Universal Licensing System and Coast Guard Vessel Documentation Center.

Last reported at 2017-Sep-21 22:53 UTC. Time now 2017-Sep-21 23:14 UTC.
Position N 33°21' W 118°19'.

Length 36 m; draft 2.5 m.

Type: Passenger vessel. MMSI: 367001740.

Date/timePositionNaut miles runAvg speedWind from/ knotsBaromVisibWave heightAir tempDewpointWater temp
2017-Sep-21 22:53N 33°21' W 118°19'15 2.4
2017-Sep-21 16:44N 33°29' W 118°05'625.6
2017-Sep-21 16:30N 33°32' W 117°59'6 0.4
2017-Sep-21 00:46N 33°36' W 117°54'2 6.0
2017-Sep-21 00:30N 33°35' W 117°53'2615.2
2017-Sep-20 22:48N 33°21' W 118°19'0 0.0
2017-Sep-20 20:16N 33°21' W 118°19'0 0.0
2017-Sep-20 19:56N 33°21' W 118°19'0 0.0
2017-Sep-20 19:30N 33°21' W 118°19'0 0.0
2017-Sep-20 18:59N 33°21' W 118°19'0 0.0
2017-Sep-20 18:30N 33°21' W 118°19'0 0.0
2017-Sep-20 17:59N 33°21' W 118°19'1412.1
2017-Sep-20 16:49N 33°29' W 118°05'926.9
2017-Sep-20 16:30N 33°33' W 117°57'4 0.2
2017-Sep-20 00:45N 33°36' W 117°54'1 5.7
2017-Sep-20 00:30N 33°35' W 117°53'2717.8
2017-Sep-19 23:01N 33°21' W 118°19'0 0.0
2017-Sep-19 22:58N 33°21' W 118°19'16 2.6
2017-Sep-19 16:41N 33°30' W 118°03'526.7
2017-Sep-19 16:30N 33°32' W 117°58'5 0.3
2017-Sep-19 00:47N 33°36' W 117°54'511.0
2017-Sep-19 00:22N 33°32' W 117°57'1026.9
2017-Sep-19 00:00N 33°27' W 118°07'12 2.0
2017-Sep-18 17:59N 33°21' W 118°19'8 8.7
2017-Sep-18 17:06N 33°25' W 118°12'326.3
2017-Sep-18 17:00N 33°27' W 118°09'1326.5
2017-Sep-18 16:31N 33°33' W 117°56'3 0.2
2017-Sep-18 00:52N 33°36' W 117°54'3 9.1
2017-Sep-18 00:30N 33°33' W 117°56'1325.0
2017-Sep-18 00:00N 33°26' W 118°08'0 0.1
2017-Sep-17 16:54N 33°27' W 118°09'1025.5
2017-Sep-17 16:30N 33°32' W 117°59'6 0.4
2017-Sep-17 00:51N 33°36' W 117°54'3 8.9
2017-Sep-17 00:28N 33°33' W 117°56'23 3.3
2017-Sep-16 17:28N 33°21' W 118°19'1122.6
2017-Sep-16 16:58N 33°27' W 118°08'1124.5
2017-Sep-16 16:30N 33°33' W 117°57'4 0.3
2017-Sep-16 00:50N 33°36' W 117°54'3 8.0
2017-Sep-16 00:30N 33°34' W 117°55'11 1.5
2017-Sep-15 16:55N 33°28' W 118°07'1025.0
2017-Sep-15 16:31N 33°33' W 117°56'4 0.2
2017-Sep-15 00:52N 33°36' W 117°54'2 4.8
2017-Sep-15 00:30N 33°35' W 117°53'1427.0
2017-Sep-15 00:00N 33°27' W 118°07'1224.2
2017-Sep-14 23:30N 33°21' W 118°19'11 1.7
2017-Sep-14 16:59N 33°27' W 118°08'1326.5
2017-Sep-14 16:31N 33°34' W 117°55'3 0.2
2017-Sep-14 00:47N 33°36' W 117°54'2 5.5
2017-Sep-14 00:30N 33°35' W 117°53'1427.4
2017-Sep-14 00:00N 33°27' W 118°07'1210.7
2017-Sep-13 22:52N 33°21' W 118°19'0 0.0
2017-Sep-13 17:53N 33°21' W 118°19'0 1.0
2017-Sep-13 17:27N 33°21' W 118°19'1018.3
2017-Sep-13 16:55N 33°27' W 118°10'1026.0
2017-Sep-13 16:31N 33°32' W 117°59'6 0.4
2017-Sep-13 00:50N 33°36' W 117°54'2 5.4
2017-Sep-13 00:31N 33°35' W 117°53'1427.4
2017-Sep-13 00:00N 33°27' W 118°07'1222.8
2017-Sep-12 23:29N 33°21' W 118°19'0 0.1
2017-Sep-12 23:00N 33°21' W 118°19'0 0.0
2017-Sep-12 21:05N 33°21' W 118°19'1 7.3
2017-Sep-12 21:00N 33°21' W 118°19'1 1.3
2017-Sep-12 20:30N 33°22' W 118°20'0 0.8
2017-Sep-12 20:01N 33°22' W 118°20'0 0.9
2017-Sep-12 19:31N 33°23' W 118°20'1 1.3
2017-Sep-12 19:00N 33°23' W 118°21'0 0.8
2017-Sep-12 18:25N 33°23' W 118°21'1 1.7
2017-Sep-12 17:59N 33°22' W 118°20'6 6.3
2017-Sep-12 17:04N 33°24' W 118°14'427.1
2017-Sep-12 16:56N 33°26' W 118°10'1127.1
2017-Sep-12 16:30N 33°32' W 117°58'6 9.9
2017-Sep-12 15:57N 33°36' W 117°54'0 0.0
2017-Sep-12 15:28N 33°36' W 117°54'0 0.0
2017-Sep-12 00:51N 33°36' W 117°54'3 8.1
2017-Sep-12 00:29N 33°34' W 117°55'1327.6
2017-Sep-12 00:01N 33°27' W 118°09'1120.9
2017-Sep-11 23:30N 33°21' W 118°19'0 0.2
2017-Sep-11 23:00N 33°21' W 118°19'  
Track history (hours):
 
Tides and Currents Weather Stations Pressure Air Temp Water Temp Dewpoint Dewpoint Depression Visibility Wind Speed Wind Dir Waves Ship Positions

Catalina Flyer

Owner: CATALINA PASSENGER SERVICE INC, BALBOA, CA. More information available from US FCC via Universal Licensing System and Coast Guard Vessel Documentation Center.

Last reported at 2017-Sep-21 22:53 UTC. Time now 2017-Sep-21 23:14 UTC.
Position N 33°21' W 118°19'.

Length 36 m; draft 2.5 m.

Type: Passenger vessel. MMSI: 367001740.

Date/timePositionNaut miles runAvg speedWind from/ knotsBaromVisibWave heightAir tempDewpointWater temp
2017-Sep-21 22:53N 33°21' W 118°19'15 2.4
2017-Sep-21 16:44N 33°29' W 118°05'625.6
2017-Sep-21 16:30N 33°32' W 117°59'6 0.4
2017-Sep-21 00:46N 33°36' W 117°54'2 6.0
2017-Sep-21 00:30N 33°35' W 117°53'2615.2
2017-Sep-20 22:48N 33°21' W 118°19'0 0.0
2017-Sep-20 20:16N 33°21' W 118°19'0 0.0
2017-Sep-20 19:56N 33°21' W 118°19'0 0.0
2017-Sep-20 19:30N 33°21' W 118°19'0 0.0
2017-Sep-20 18:59N 33°21' W 118°19'0 0.0
2017-Sep-20 18:30N 33°21' W 118°19'0 0.0
2017-Sep-20 17:59N 33°21' W 118°19'1412.1
2017-Sep-20 16:49N 33°29' W 118°05'926.9
2017-Sep-20 16:30N 33°33' W 117°57'4 0.2
2017-Sep-20 00:45N 33°36' W 117°54'1 5.7
2017-Sep-20 00:30N 33°35' W 117°53'2717.8
2017-Sep-19 23:01N 33°21' W 118°19'0 0.0
2017-Sep-19 22:58N 33°21' W 118°19'16 2.6
2017-Sep-19 16:41N 33°30' W 118°03'526.7
2017-Sep-19 16:30N 33°32' W 117°58'5 0.3
2017-Sep-19 00:47N 33°36' W 117°54'511.0
2017-Sep-19 00:22N 33°32' W 117°57'1026.9
2017-Sep-19 00:00N 33°27' W 118°07'12 2.0
2017-Sep-18 17:59N 33°21' W 118°19'8 8.7
2017-Sep-18 17:06N 33°25' W 118°12'326.3
2017-Sep-18 17:00N 33°27' W 118°09'1326.5
2017-Sep-18 16:31N 33°33' W 117°56'3 0.2
2017-Sep-18 00:52N 33°36' W 117°54'3 9.1
2017-Sep-18 00:30N 33°33' W 117°56'1325.0
2017-Sep-18 00:00N 33°26' W 118°08'0 0.1
2017-Sep-17 16:54N 33°27' W 118°09'1025.5
2017-Sep-17 16:30N 33°32' W 117°59'6 0.4
2017-Sep-17 00:51N 33°36' W 117°54'3 8.9
2017-Sep-17 00:28N 33°33' W 117°56'23 3.3
2017-Sep-16 17:28N 33°21' W 118°19'1122.6
2017-Sep-16 16:58N 33°27' W 118°08'1124.5
2017-Sep-16 16:30N 33°33' W 117°57'4 0.3
2017-Sep-16 00:50N 33°36' W 117°54'3 8.0
2017-Sep-16 00:30N 33°34' W 117°55'11 1.5
2017-Sep-15 16:55N 33°28' W 118°07'1025.0
2017-Sep-15 16:31N 33°33' W 117°56'4 0.2
2017-Sep-15 00:52N 33°36' W 117°54'2 4.8
2017-Sep-15 00:30N 33°35' W 117°53'1427.0
2017-Sep-15 00:00N 33°27' W 118°07'1224.2
2017-Sep-14 23:30N 33°21' W 118°19'11 1.7
2017-Sep-14 16:59N 33°27' W 118°08'1326.5
2017-Sep-14 16:31N 33°34' W 117°55'3 0.2
2017-Sep-14 00:47N 33°36' W 117°54'2 5.5
2017-Sep-14 00:30N 33°35' W 117°53'1427.4
2017-Sep-14 00:00N 33°27' W 118°07'1210.7
2017-Sep-13 22:52N 33°21' W 118°19'0 0.0
2017-Sep-13 17:53N 33°21' W 118°19'0 1.0
2017-Sep-13 17:27N 33°21' W 118°19'1018.3
2017-Sep-13 16:55N 33°27' W 118°10'1026.0
2017-Sep-13 16:31N 33°32' W 117°59'6 0.4
2017-Sep-13 00:50N 33°36' W 117°54'2 5.4
2017-Sep-13 00:31N 33°35' W 117°53'1427.4
2017-Sep-13 00:00N 33°27' W 118°07'1222.8
2017-Sep-12 23:29N 33°21' W 118°19'0 0.1
2017-Sep-12 23:00N 33°21' W 118°19'0 0.0
2017-Sep-12 21:05N 33°21' W 118°19'1 7.3
2017-Sep-12 21:00N 33°21' W 118°19'1 1.3
2017-Sep-12 20:30N 33°22' W 118°20'0 0.8
2017-Sep-12 20:01N 33°22' W 118°20'0 0.9
2017-Sep-12 19:31N 33°23' W 118°20'1 1.3
2017-Sep-12 19:00N 33°23' W 118°21'0 0.8
2017-Sep-12 18:25N 33°23' W 118°21'1 1.7
2017-Sep-12 17:59N 33°22' W 118°20'6 6.3
2017-Sep-12 17:04N 33°24' W 118°14'427.1
2017-Sep-12 16:56N 33°26' W 118°10'1127.1
2017-Sep-12 16:30N 33°32' W 117°58'6 9.9
2017-Sep-12 15:57N 33°36' W 117°54'0 0.0
2017-Sep-12 15:28N 33°36' W 117°54'0 0.0
2017-Sep-12 00:51N 33°36' W 117°54'3 8.1
2017-Sep-12 00:29N 33°34' W 117°55'1327.6
2017-Sep-12 00:01N 33°27' W 118°09'1120.9
2017-Sep-11 23:30N 33°21' W 118°19'0 0.2
2017-Sep-11 23:00N 33°21' W 118°19'  

Dump ship's entire track history